createdAt,value
2022-11-24T00:00:19.179Z,77.39
2022-11-24T00:03:11.334Z,77.32
2022-11-24T00:05:43.587Z,77.44
2022-11-24T00:08:15.961Z,77.37
2022-11-24T00:10:48.027Z,77.37
2022-11-24T00:13:20.373Z,77.57
2022-11-24T00:15:52.442Z,77.75
2022-11-24T00:18:24.482Z,77.90
2022-11-24T00:20:56.522Z,77.82
2022-11-24T00:23:28.639Z,77.80
2022-11-24T00:26:09.023Z,77.96
2022-11-24T00:28:42.247Z,77.88
2022-11-24T00:31:23.506Z,77.92
2022-11-24T00:33:57.713Z,77.84
2022-11-24T00:36:31.956Z,77.69
2022-11-24T00:39:06.043Z,77.29
2022-11-24T00:41:39.748Z,77.45
2022-11-24T00:44:11.761Z,77.35
2022-11-24T00:46:43.928Z,77.41
2022-11-24T00:49:16.100Z,77.43
2022-11-24T00:51:48.190Z,77.49
2022-11-24T00:54:20.308Z,77.65
2022-11-24T00:56:52.527Z,77.61
2022-11-24T00:59:24.566Z,77.73
2022-11-24T01:01:56.591Z,77.89
2022-11-24T01:04:28.853Z,77.57
2022-11-24T01:07:00.867Z,77.90
2022-11-24T01:09:32.957Z,77.75
2022-11-24T01:12:05.267Z,77.70
2022-11-24T01:14:37.485Z,77.88
2022-11-24T01:17:09.568Z,77.46
2022-11-24T01:19:41.581Z,77.55
2022-11-24T01:22:13.643Z,77.49
2022-11-24T01:24:46.043Z,77.15
2022-11-24T01:27:18.058Z,77.19
2022-11-24T01:29:50.050Z,77.09
2022-11-24T01:32:22.038Z,77.30
2022-11-24T01:34:54.128Z,77.23
2022-11-24T01:37:26.193Z,77.38
2022-11-24T01:39:58.207Z,77.56
2022-11-24T01:42:41.364Z,77.51
2022-11-24T01:45:45.862Z,77.67
2022-11-24T01:48:27.372Z,77.59
2022-11-24T01:51:09.357Z,77.56
2022-11-24T01:53:43.366Z,77.61
2022-11-24T01:56:16.165Z,77.53
2022-11-24T01:58:49.741Z,77.41
2022-11-24T02:01:21.899Z,77.41
2022-11-24T02:03:54.948Z,77.09
2022-11-24T02:06:30.802Z,77.18
2022-11-24T02:09:05.585Z,77.13
2022-11-24T02:11:40.206Z,77.07
2022-11-24T02:14:15.116Z,77.03
2022-11-24T02:16:53.191Z,77.19
2022-11-24T02:19:34.887Z,77.21
2022-11-24T02:22:08.337Z,77.46
2022-11-24T02:24:48.698Z,77.34
2022-11-24T02:27:21.532Z,77.46
2022-11-24T02:29:53.667Z,77.50
2022-11-24T02:32:26.124Z,77.49
2022-11-24T02:35:05.117Z,77.62
2022-11-24T02:37:37.196Z,77.55
2022-11-24T02:40:12.605Z,77.56
2022-11-24T02:42:47.595Z,77.38
2022-11-24T02:45:18.258Z,76.70
2022-11-24T02:47:50.396Z,76.83
2022-11-24T02:50:22.461Z,76.99
2022-11-24T02:52:54.425Z,77.01
2022-11-24T02:55:26.467Z,77.22
2022-11-24T02:57:58.481Z,77.31
2022-11-24T03:00:30.472Z,77.40
2022-11-24T03:03:03.207Z,77.47
2022-11-24T03:05:35.369Z,77.19
2022-11-24T03:08:07.904Z,77.32
2022-11-24T03:10:40.218Z,77.26
2022-11-24T03:13:12.206Z,77.28
2022-11-24T03:15:44.317Z,77.20
2022-11-24T03:18:16.391Z,77.38
2022-11-24T03:20:48.432Z,77.41
2022-11-24T03:23:20.448Z,77.31
2022-11-24T03:25:52.512Z,77.10
2022-11-24T03:28:24.552Z,76.89
2022-11-24T03:30:56.597Z,76.83
2022-11-24T03:33:28.734Z,77.05
2022-11-24T03:36:01.132Z,77.05
2022-11-24T03:38:33.375Z,77.12
2022-11-24T03:41:05.472Z,77.30
2022-11-24T03:43:43.184Z,77.40
2022-11-24T03:46:15.769Z,77.34
2022-11-24T03:48:47.937Z,77.36
2022-11-24T03:51:19.980Z,77.33
2022-11-24T03:53:52.020Z,77.39
2022-11-24T03:56:24.087Z,77.53
2022-11-24T03:58:56.282Z,77.27
2022-11-24T04:01:28.315Z,77.30
2022-11-24T04:04:00.461Z,77.36
2022-11-24T04:06:32.783Z,76.95
2022-11-24T04:09:05.210Z,76.97
2022-11-24T04:11:55.090Z,77.02
2022-11-24T04:14:27.157Z,76.99
2022-11-24T04:16:59.222Z,77.02
2022-11-24T04:19:31.237Z,77.11
2022-11-24T04:22:03.277Z,77.09
2022-11-24T04:24:35.479Z,77.37
2022-11-24T04:27:07.692Z,77.33
2022-11-24T04:29:39.683Z,77.23
2022-11-24T04:32:11.749Z,77.28
2022-11-24T04:34:43.734Z,77.14
2022-11-24T04:37:15.697Z,77.14
2022-11-24T04:39:48.201Z,77.23
2022-11-24T04:42:20.213Z,77.27
2022-11-24T04:44:52.308Z,77.19
2022-11-24T04:47:26.396Z,76.93
2022-11-24T04:49:58.462Z,76.73
2022-11-24T04:52:32.675Z,76.70
2022-11-24T04:55:04.825Z,76.65
2022-11-24T04:57:36.962Z,76.73
2022-11-24T05:00:11.709Z,76.70
2022-11-24T05:02:43.733Z,76.93
2022-11-24T05:05:16.127Z,76.95
2022-11-24T05:07:48.329Z,77.03
2022-11-24T05:10:38.837Z,76.94
2022-11-24T05:13:14.668Z,77.16
2022-11-24T05:15:46.654Z,77.02
2022-11-24T05:18:18.800Z,77.05
2022-11-24T05:20:51.318Z,77.01
2022-11-24T05:23:23.341Z,76.97
2022-11-24T05:25:55.303Z,77.07
2022-11-24T05:28:27.317Z,76.96
2022-11-24T05:31:03.309Z,76.67
2022-11-24T05:33:35.395Z,76.67
2022-11-24T05:36:29.142Z,76.60
2022-11-24T05:39:01.512Z,76.61
2022-11-24T05:41:33.482Z,76.68
2022-11-24T05:44:05.522Z,76.63
2022-11-24T05:46:37.747Z,76.86
2022-11-24T05:49:09.833Z,77.02
2022-11-24T05:51:41.790Z,77.12
2022-11-24T05:54:13.779Z,77.15
2022-11-24T05:56:45.789Z,77.09
2022-11-24T05:59:17.929Z,76.95
2022-11-24T06:01:50.302Z,77.01
2022-11-24T06:04:22.319Z,77.00
2022-11-24T06:06:54.337Z,77.00
2022-11-24T06:09:26.272Z,77.06
2022-11-24T06:11:58.235Z,76.86
2022-11-24T06:14:30.199Z,76.60
2022-11-24T06:17:02.299Z,76.59
2022-11-24T06:19:37.435Z,76.51
2022-11-24T06:22:13.487Z,76.49
2022-11-24T06:24:46.193Z,76.53
2022-11-24T06:27:18.462Z,76.71
2022-11-24T06:29:50.428Z,77.00
2022-11-24T06:32:24.285Z,76.88
2022-11-24T06:34:56.276Z,76.99
2022-11-24T06:37:28.314Z,77.01
2022-11-24T06:40:00.508Z,77.02
2022-11-24T06:42:32.630Z,76.87
2022-11-24T06:45:08.804Z,76.86
2022-11-24T06:47:41.672Z,76.99
2022-11-24T06:50:14.172Z,76.92
2022-11-24T06:52:46.240Z,76.85
2022-11-24T06:55:18.718Z,76.90
2022-11-24T06:57:50.651Z,76.67
2022-11-24T07:00:23.282Z,76.49
2022-11-24T07:02:55.254Z,76.42
2022-11-24T07:05:27.694Z,76.48
2022-11-24T07:08:01.577Z,76.63
2022-11-24T07:10:33.515Z,76.76
2022-11-24T07:13:07.915Z,76.79
2022-11-24T07:15:39.835Z,76.87
2022-11-24T07:18:11.837Z,76.98
2022-11-24T07:20:43.757Z,76.90
2022-11-24T07:23:15.715Z,76.83
2022-11-24T07:25:47.653Z,76.72
2022-11-24T07:28:19.588Z,76.73
2022-11-24T07:30:51.581Z,76.81
2022-11-24T07:33:25.359Z,76.77
2022-11-24T07:36:00.316Z,76.69
2022-11-24T07:38:33.534Z,76.65
2022-11-24T07:41:07.305Z,76.55
2022-11-24T07:43:40.277Z,76.30
2022-11-24T07:46:15.370Z,76.26
2022-11-24T07:48:47.777Z,76.28
2022-11-24T07:51:19.804Z,76.42
2022-11-24T07:53:52.099Z,76.60
2022-11-24T07:56:24.042Z,76.65
2022-11-24T07:58:56.538Z,76.74
2022-11-24T08:01:28.538Z,76.84
2022-11-24T08:04:02.340Z,76.81
2022-11-24T08:06:39.850Z,76.86
2022-11-24T08:09:15.271Z,76.82
2022-11-24T08:11:47.211Z,76.76
2022-11-24T08:14:19.105Z,76.75
2022-11-24T08:16:51.104Z,76.84
2022-11-24T08:19:24.560Z,76.75
2022-11-24T08:21:56.576Z,76.75
2022-11-24T08:24:29.307Z,76.65
2022-11-24T08:27:01.472Z,76.40
2022-11-24T08:29:34.026Z,76.57
2022-11-24T08:32:06.639Z,76.23
2022-11-24T08:34:39.285Z,76.36
2022-11-24T08:37:11.427Z,76.34
2022-11-24T08:39:43.388Z,76.52
2022-11-24T08:42:15.327Z,76.70
2022-11-24T08:44:47.241Z,76.67
2022-11-24T08:47:19.230Z,76.81
2022-11-24T08:49:51.242Z,76.92
2022-11-24T08:52:23.233Z,76.86
2022-11-24T08:54:55.169Z,76.81
2022-11-24T08:57:27.133Z,76.71
2022-11-24T08:59:59.096Z,76.62
2022-11-24T09:02:31.392Z,76.54
2022-11-24T09:05:03.384Z,76.69
2022-11-24T09:07:35.643Z,76.39
2022-11-24T09:10:09.187Z,76.19
2022-11-24T09:12:41.090Z,76.06
2022-11-24T09:15:15.102Z,75.94
2022-11-24T09:17:47.090Z,76.12
2022-11-24T09:20:19.619Z,76.39
2022-11-24T09:22:51.605Z,76.27
2022-11-24T09:25:23.749Z,76.33
2022-11-24T09:27:56.586Z,76.58
2022-11-24T09:30:28.724Z,76.65
2022-11-24T09:33:01.352Z,76.70
2022-11-24T09:35:33.317Z,76.73
2022-11-24T09:38:05.820Z,76.79
2022-11-24T09:40:37.794Z,76.60
2022-11-24T09:43:18.757Z,76.42
2022-11-24T09:46:05.636Z,76.55
2022-11-24T09:48:42.394Z,76.53
2022-11-24T09:51:16.764Z,76.62
2022-11-24T09:53:56.177Z,76.62
2022-11-24T09:56:32.182Z,76.50
2022-11-24T09:59:07.579Z,76.52
2022-11-24T10:01:43.397Z,76.36
2022-11-24T10:04:19.559Z,76.27
2022-11-24T10:06:58.164Z,76.29
2022-11-24T10:09:50.743Z,76.37
2022-11-24T10:12:35.090Z,76.41
2022-11-24T10:15:25.736Z,76.26
2022-11-24T10:18:20.975Z,76.61
2022-11-24T10:21:03.203Z,76.56
2022-11-24T10:23:51.296Z,76.45
2022-11-24T10:26:34.190Z,76.74
2022-11-24T10:29:16.907Z,76.61
2022-11-24T10:31:53.556Z,76.70
2022-11-24T10:34:30.769Z,76.59
2022-11-24T10:37:07.516Z,76.43
2022-11-24T10:39:46.751Z,76.71
2022-11-24T10:42:24.935Z,76.61
2022-11-24T10:45:03.629Z,76.78
2022-11-24T10:47:35.646Z,76.60
2022-11-24T10:50:19.464Z,75.98
2022-11-24T10:52:57.365Z,76.29
2022-11-24T10:55:49.348Z,76.28
2022-11-24T10:58:26.968Z,76.16
2022-11-24T11:01:00.838Z,76.18
2022-11-24T11:03:47.051Z,76.34
2022-11-24T11:06:24.746Z,76.50
2022-11-24T11:09:19.328Z,76.55
2022-11-24T11:11:54.346Z,76.27
2022-11-24T11:14:35.728Z,76.38
2022-11-24T11:17:33.834Z,76.35
2022-11-24T11:20:09.020Z,76.57
2022-11-24T11:22:44.366Z,76.57
2022-11-24T11:25:24.575Z,76.59
2022-11-24T11:28:19.578Z,76.54
2022-11-24T11:31:19.829Z,76.51
2022-11-24T11:34:03.820Z,76.43
2022-11-24T11:36:37.613Z,76.29
2022-11-24T11:39:13.870Z,76.07
2022-11-24T11:41:49.663Z,76.09
2022-11-24T11:44:34.250Z,75.99
2022-11-24T11:47:18.920Z,76.11
2022-11-24T11:49:53.009Z,76.16
2022-11-24T11:52:44.913Z,76.32
2022-11-24T11:55:33.111Z,76.34
2022-11-24T11:58:20.874Z,76.42
2022-11-24T12:01:00.663Z,76.51
2022-11-24T12:03:54.578Z,76.51
2022-11-24T12:06:43.782Z,76.49
2022-11-24T12:09:26.165Z,76.35
2022-11-24T12:12:14.360Z,76.36
2022-11-24T12:14:59.199Z,76.29
2022-11-24T12:17:37.357Z,76.45
2022-11-24T12:20:26.297Z,76.30
2022-11-24T12:23:09.751Z,76.33
2022-11-24T12:25:46.727Z,75.97
2022-11-24T12:28:33.809Z,75.91
2022-11-24T12:31:09.066Z,76.04
2022-11-24T12:34:06.427Z,76.17
2022-11-24T12:36:57.360Z,76.08
2022-11-24T12:39:36.735Z,76.05
2022-11-24T12:42:14.315Z,75.97
2022-11-24T12:45:13.239Z,76.28
2022-11-24T12:48:06.347Z,76.23
2022-11-24T12:50:40.381Z,76.24
2022-11-24T12:53:16.876Z,76.32
2022-11-24T12:55:49.915Z,76.13
2022-11-24T12:58:34.066Z,76.10
2022-11-24T13:01:18.842Z,76.19
2022-11-24T13:04:01.601Z,76.28
2022-11-24T13:06:49.366Z,76.42
2022-11-24T13:09:21.932Z,76.15
2022-11-24T13:11:59.149Z,75.83
2022-11-24T13:14:37.545Z,75.71
2022-11-24T13:17:33.721Z,75.92
2022-11-24T13:20:24.544Z,75.78
2022-11-24T13:22:59.603Z,75.81
2022-11-24T13:25:33.062Z,76.08
2022-11-24T13:28:07.085Z,76.19
2022-11-24T13:30:56.192Z,76.15
2022-11-24T13:33:38.999Z,76.14
2022-11-24T13:36:31.679Z,76.14
2022-11-24T13:39:05.606Z,76.38
2022-11-24T13:42:43.759Z,76.32
2022-11-24T13:45:05.129Z,76.20
2022-11-24T13:47:47.085Z,76.34
2022-11-24T13:50:47.414Z,76.36
2022-11-24T13:53:33.480Z,76.15
2022-11-24T13:56:10.617Z,75.76
2022-11-24T13:58:44.069Z,75.58
2022-11-24T14:01:23.234Z,75.71
2022-11-24T14:04:33.846Z,75.83
2022-11-24T14:07:13.068Z,75.78
2022-11-24T14:09:47.701Z,75.91
2022-11-24T14:12:21.766Z,75.76
2022-11-24T14:14:55.742Z,76.02
2022-11-24T14:17:29.350Z,76.23
2022-11-24T14:20:01.365Z,76.14
2022-11-24T14:22:40.523Z,76.29
2022-11-24T14:25:27.410Z,76.25
2022-11-24T14:28:00.505Z,76.28
2022-11-24T14:30:32.642Z,76.21
2022-11-24T14:33:05.375Z,76.07
2022-11-24T14:35:44.494Z,76.05
2022-11-24T14:38:16.815Z,75.82
2022-11-24T14:40:50.735Z,75.89
2022-11-24T14:43:28.531Z,75.86
2022-11-24T14:46:02.371Z,75.87
2022-11-24T14:48:39.555Z,75.84
2022-11-24T14:51:17.584Z,75.97
2022-11-24T14:53:53.260Z,75.81
2022-11-24T14:56:30.189Z,75.93
2022-11-24T14:59:02.468Z,76.07
2022-11-24T15:01:37.367Z,76.06
2022-11-24T15:04:39.325Z,76.27
2022-11-24T15:07:21.748Z,76.09
2022-11-24T15:09:58.187Z,76.14
2022-11-24T15:12:34.993Z,76.09
2022-11-24T15:15:18.345Z,76.26
2022-11-24T15:17:53.485Z,76.13
2022-11-24T15:20:27.104Z,75.85
2022-11-24T15:23:21.783Z,76.08
2022-11-24T15:25:54.479Z,76.03
2022-11-24T15:28:26.880Z,75.54
2022-11-24T15:31:03.097Z,75.65
2022-11-24T15:33:35.599Z,75.64
2022-11-24T15:36:08.446Z,75.87
2022-11-24T15:38:40.349Z,75.79
2022-11-24T15:41:20.576Z,75.77
2022-11-24T15:43:58.939Z,75.84
2022-11-24T15:46:38.063Z,76.06
2022-11-24T15:49:10.393Z,76.14
2022-11-24T15:51:47.120Z,76.09
2022-11-24T15:54:20.702Z,76.15
2022-11-24T15:56:52.609Z,75.76
2022-11-24T15:59:24.853Z,76.17
2022-11-24T16:01:56.834Z,75.99
2022-11-24T16:04:29.192Z,76.16
2022-11-24T16:07:01.108Z,75.91
2022-11-24T16:09:32.989Z,76.05
2022-11-24T16:12:05.284Z,75.84
2022-11-24T16:14:37.694Z,75.66
2022-11-24T16:17:10.261Z,75.69
2022-11-24T16:19:42.324Z,75.48
2022-11-24T16:22:14.444Z,75.52
2022-11-24T16:24:46.382Z,75.53
2022-11-24T16:27:18.344Z,75.94
2022-11-24T16:29:50.617Z,75.79
2022-11-24T16:32:22.579Z,76.01
2022-11-24T16:34:54.517Z,75.92
2022-11-24T16:37:26.686Z,75.98
2022-11-24T16:39:58.667Z,75.84
2022-11-24T16:42:31.072Z,76.12
2022-11-24T16:45:03.394Z,76.00
2022-11-24T16:47:39.506Z,76.02
2022-11-24T16:50:13.549Z,75.97
2022-11-24T16:52:45.660Z,75.94
2022-11-24T16:55:17.639Z,75.54
2022-11-24T16:57:49.688Z,75.59
2022-11-24T17:00:23.444Z,75.61
2022-11-24T17:02:55.467Z,75.69
2022-11-24T17:05:27.935Z,75.74
2022-11-24T17:08:00.786Z,75.65
2022-11-24T17:10:33.032Z,75.77
2022-11-24T17:13:05.011Z,75.88
2022-11-24T17:15:46.211Z,75.98
2022-11-24T17:18:25.191Z,76.12
2022-11-24T17:21:07.680Z,76.07
2022-11-24T17:23:41.629Z,75.98
2022-11-24T17:26:16.671Z,75.92
2022-11-24T17:28:47.186Z,76.15
2022-11-24T17:31:23.374Z,76.15
2022-11-24T17:33:57.344Z,76.10
2022-11-24T17:36:31.482Z,75.91
2022-11-24T17:39:05.128Z,75.78
2022-11-24T17:41:37.814Z,75.64
2022-11-24T17:44:10.780Z,75.82
2022-11-24T17:46:42.923Z,75.77
2022-11-24T17:49:14.945Z,75.66
2022-11-24T17:51:50.617Z,75.66
2022-11-24T17:57:14.763Z,75.96
2022-11-24T17:59:46.827Z,75.92
2022-11-24T18:02:18.925Z,75.87
2022-11-24T18:04:50.962Z,75.97
2022-11-24T18:07:22.992Z,76.16
2022-11-24T18:09:55.192Z,75.91
2022-11-24T18:12:27.258Z,75.90
2022-11-24T18:14:59.734Z,76.03
2022-11-24T18:17:31.697Z,75.83
2022-11-24T18:20:03.787Z,75.92
2022-11-24T18:23:04.064Z,75.72
2022-11-24T18:25:29.756Z,75.61
2022-11-24T18:28:01.694Z,75.52
2022-11-24T18:30:33.603Z,75.50
2022-11-24T18:33:05.570Z,75.65
2022-11-24T18:35:39.760Z,75.79
2022-11-24T18:38:11.932Z,75.78
2022-11-24T18:40:43.969Z,75.77
2022-11-24T18:43:16.522Z,75.84
2022-11-24T18:45:48.790Z,75.89
2022-11-24T18:48:21.396Z,76.03
2022-11-24T18:50:54.208Z,75.87
2022-11-24T18:53:27.805Z,75.83
2022-11-24T18:56:01.997Z,75.88
2022-11-24T18:58:35.780Z,75.90
2022-11-24T19:01:13.184Z,75.77
2022-11-24T19:03:49.099Z,75.63
2022-11-24T19:06:23.141Z,75.50
2022-11-24T19:08:56.763Z,75.39
2022-11-24T19:11:32.592Z,75.51
2022-11-24T19:14:05.861Z,75.45
2022-11-24T19:16:38.164Z,75.44
2022-11-24T19:19:11.655Z,75.57
2022-11-24T19:21:43.748Z,75.67
2022-11-24T19:24:15.788Z,75.85
2022-11-24T19:26:48.088Z,75.85
2022-11-24T19:29:20.610Z,76.01
2022-11-24T19:31:55.314Z,75.92
2022-11-24T19:34:27.737Z,75.85
2022-11-24T19:36:59.804Z,75.93
2022-11-24T19:39:32.031Z,75.76
2022-11-24T19:42:04.911Z,75.78
2022-11-24T19:44:37.059Z,75.79
2022-11-24T19:47:09.143Z,75.70
2022-11-24T19:49:41.158Z,75.52
2022-11-24T19:52:13.094Z,75.28
2022-11-24T19:54:45.954Z,75.11
2022-11-24T19:57:17.870Z,75.14
2022-11-24T19:59:51.621Z,75.36
2022-11-24T20:02:23.600Z,75.38
2022-11-24T20:04:55.804Z,75.48
2022-11-24T20:07:27.772Z,75.60
2022-11-24T20:10:04.421Z,75.68
2022-11-24T20:12:39.631Z,75.64
2022-11-24T20:15:12.550Z,75.78
2022-11-24T20:17:44.530Z,75.78
2022-11-24T20:20:17.184Z,75.78
2022-11-24T20:22:49.082Z,75.77
2022-11-24T20:25:21.113Z,75.80
2022-11-24T20:27:53.250Z,75.84
2022-11-24T20:30:25.193Z,75.74
2022-11-24T20:32:57.848Z,75.62
2022-11-24T20:35:29.836Z,75.43
2022-11-24T20:38:01.775Z,75.32
2022-11-24T20:40:33.763Z,75.45
2022-11-24T20:43:05.674Z,75.38
2022-11-24T20:45:40.087Z,75.49
2022-11-24T20:48:12.163Z,75.68
2022-11-24T20:50:49.770Z,75.75
2022-11-24T20:53:23.207Z,75.57
2022-11-24T20:56:05.633Z,75.73
2022-11-24T20:58:39.087Z,75.82
2022-11-24T21:01:13.640Z,75.98
2022-11-24T21:03:48.780Z,75.94
2022-11-24T21:06:20.789Z,75.91
2022-11-24T21:08:52.779Z,75.83
2022-11-24T21:11:25.279Z,75.75
2022-11-24T21:13:57.221Z,75.63
2022-11-24T21:16:31.181Z,75.63
2022-11-24T21:19:05.910Z,75.44
2022-11-24T21:21:39.380Z,75.40
2022-11-24T21:24:13.822Z,75.47
2022-11-24T21:26:48.117Z,75.48
2022-11-24T21:29:23.667Z,75.50
2022-11-24T21:31:55.862Z,75.62
2022-11-24T21:34:28.054Z,75.74
2022-11-24T21:37:00.150Z,75.82
2022-11-24T21:39:32.142Z,75.82
2022-11-24T21:42:04.814Z,75.79
2022-11-24T21:44:37.175Z,75.97
2022-11-24T21:47:09.817Z,75.85
2022-11-24T21:49:41.729Z,75.82
2022-11-24T21:52:13.717Z,75.71
2022-11-24T21:54:45.629Z,75.70
2022-11-24T21:57:18.079Z,75.62
2022-11-24T21:59:50.249Z,75.37
2022-11-24T22:02:22.467Z,75.26
2022-11-24T22:04:54.587Z,75.39
2022-11-24T22:07:26.907Z,75.58
2022-11-24T22:09:58.818Z,75.67
2022-11-24T22:12:31.422Z,75.52
2022-11-24T22:15:03.385Z,75.40
2022-11-24T22:17:35.324Z,75.76
2022-11-24T22:20:09.753Z,75.67
2022-11-24T22:22:41.707Z,75.84
2022-11-24T22:25:13.722Z,75.62
2022-11-24T22:27:45.735Z,75.81
2022-11-24T22:30:18.239Z,75.63
2022-11-24T22:32:50.149Z,75.64
2022-11-24T22:35:22.134Z,75.69
2022-11-24T22:37:54.333Z,75.32
2022-11-24T22:40:26.194Z,75.18
2022-11-24T22:42:58.976Z,75.14
2022-11-24T22:45:30.904Z,75.27
2022-11-24T22:48:02.954Z,75.41
2022-11-24T22:50:34.866Z,75.34
2022-11-24T22:53:06.804Z,75.51
2022-11-24T22:55:38.819Z,75.63
2022-11-24T22:58:10.755Z,75.94
2022-11-24T23:00:42.693Z,76.06
2022-11-24T23:03:14.708Z,75.66
2022-11-24T23:05:46.803Z,75.68
2022-11-24T23:08:18.988Z,75.81
2022-11-24T23:10:50.906Z,75.71
2022-11-24T23:13:22.740Z,75.60
2022-11-24T23:15:54.700Z,75.74
2022-11-24T23:18:26.694Z,75.57
2022-11-24T23:20:58.758Z,75.41
2022-11-24T23:23:30.646Z,75.42
2022-11-24T23:26:03.691Z,75.60
2022-11-24T23:28:36.090Z,75.51
2022-11-24T23:31:09.868Z,75.67
2022-11-24T23:33:42.211Z,75.54
2022-11-24T23:36:16.660Z,75.66
2022-11-24T23:38:50.029Z,75.71
2022-11-24T23:41:24.527Z,75.95
2022-11-24T23:43:56.601Z,75.83
2022-11-24T23:46:29.969Z,75.78
2022-11-24T23:49:02.132Z,75.79
2022-11-24T23:51:34.706Z,75.63
2022-11-24T23:54:10.873Z,75.98
2022-11-24T23:56:42.810Z,75.86
2022-11-24T23:59:14.902Z,75.89
